createdAt,value
2018-06-10T00:00:10.377Z,69.10
2018-06-10T00:02:52.321Z,71.00
2018-06-10T00:05:34.847Z,71.10
2018-06-10T00:08:17.718Z,71.20
2018-06-10T00:10:58.251Z,69.80
2018-06-10T00:13:40.112Z,68.90
2018-06-10T00:16:20.360Z,68.30
2018-06-10T00:18:57.424Z,68.70
2018-06-10T00:21:38.472Z,69.40
2018-06-10T00:24:21.965Z,68.50
2018-06-10T00:26:59.862Z,68.50
2018-06-10T00:29:39.841Z,67.60
2018-06-10T00:35:14.212Z,70.00
2018-06-10T00:40:13.529Z,70.60
2018-06-10T00:42:43.228Z,69.70
2018-06-10T00:45:12.910Z,69.00
2018-06-10T00:47:42.830Z,69.00
2018-06-10T00:50:12.710Z,68.50
2018-06-10T00:52:42.663Z,68.10
2018-06-10T00:55:12.801Z,67.80
2018-06-10T01:00:13.151Z,68.70
2018-06-10T01:02:43.561Z,67.80
2018-06-10T01:05:13.428Z,67.50
2018-06-10T01:07:43.279Z,67.80
2018-06-10T01:10:13.373Z,68.10
2018-06-10T01:12:43.168Z,68.80
2018-06-10T01:15:13.478Z,69.50
2018-06-10T01:17:43.371Z,69.40
2018-06-10T01:20:13.151Z,68.50
2018-06-10T01:22:43.265Z,68.00
2018-06-10T01:25:13.387Z,68.00
2018-06-10T01:27:43.697Z,67.50
2018-06-10T01:30:13.576Z,67.70
2018-06-10T01:32:43.419Z,68.10
2018-06-10T01:35:13.685Z,67.70
2018-06-10T01:37:43.855Z,67.80
2018-06-10T01:40:13.730Z,67.30
2018-06-10T01:42:43.998Z,67.80
2018-06-10T01:45:14.259Z,68.00
2018-06-10T01:47:44.052Z,69.50
2018-06-10T01:50:13.889Z,68.80
2018-06-10T01:52:44.053Z,69.50
2018-06-10T01:55:14.161Z,69.80
2018-06-10T01:57:44.182Z,70.00
2018-06-10T02:00:14.232Z,70.50
2018-06-10T02:02:44.676Z,69.30
2018-06-10T02:05:14.436Z,69.00
2018-06-10T02:07:44.322Z,70.50
2018-06-10T02:10:15.331Z,70.50
2018-06-10T02:12:45.525Z,70.70
2018-06-10T02:15:15.539Z,71.10
2018-06-10T02:17:45.249Z,71.10
2018-06-10T02:20:15.234Z,70.90
2018-06-10T02:22:45.427Z,72.30
2018-06-10T02:25:15.261Z,71.20
2018-06-10T02:27:45.277Z,72.20
2018-06-10T02:30:15.280Z,73.30
2018-06-10T02:32:46.235Z,73.70
2018-06-10T02:35:16.366Z,73.60
2018-06-10T02:37:46.301Z,71.90
2018-06-10T02:40:16.213Z,70.80
2018-06-10T02:42:46.288Z,70.30
2018-06-10T02:47:45.820Z,70.00
2018-06-10T02:50:15.662Z,70.70
2018-06-10T02:52:45.992Z,71.00
2018-06-10T02:55:16.736Z,70.10
2018-06-10T02:57:46.543Z,70.50
2018-06-10T03:00:16.521Z,69.60
2018-06-10T03:02:46.201Z,68.70
2018-06-10T03:05:16.085Z,68.40
2018-06-10T03:07:45.929Z,68.30
2018-06-10T03:10:16.174Z,69.40
2018-06-10T03:12:46.180Z,70.30
2018-06-10T03:15:16.409Z,70.90
2018-06-10T03:20:16.590Z,69.70
2018-06-10T03:22:46.441Z,69.70
2018-06-10T03:25:16.657Z,69.60
2018-06-10T03:27:46.595Z,70.50
2018-06-10T03:30:16.646Z,70.50
2018-06-10T03:32:46.582Z,70.00
2018-06-10T03:35:16.936Z,69.50
2018-06-10T03:37:46.917Z,70.40
2018-06-10T03:40:17.157Z,70.70
2018-06-10T03:42:47.529Z,70.70
2018-06-10T03:45:17.409Z,70.50
2018-06-10T03:47:47.418Z,70.90
2018-06-10T03:50:17.282Z,71.20
2018-06-10T03:52:47.149Z,71.40
2018-06-10T03:55:17.433Z,70.50
2018-06-10T03:57:47.192Z,70.60
2018-06-10T04:00:17.294Z,70.00
2018-06-10T04:02:47.302Z,69.20
2018-06-10T04:05:17.556Z,69.40
2018-06-10T04:07:47.515Z,68.60
2018-06-10T04:10:17.559Z,68.70
2018-06-10T04:12:47.698Z,68.60
2018-06-10T04:15:17.666Z,67.30
2018-06-10T04:17:47.538Z,68.10
2018-06-10T04:20:17.931Z,68.00
2018-06-10T04:22:47.832Z,68.10
2018-06-10T04:25:17.785Z,67.80
2018-06-10T04:27:48.112Z,68.80
2018-06-10T04:30:17.921Z,67.60
2018-06-10T04:32:51.043Z,66.30
2018-06-10T04:35:20.811Z,66.90
2018-06-10T04:37:50.593Z,67.00
2018-06-10T04:40:20.504Z,65.70
2018-06-10T04:42:51.169Z,64.70
2018-06-10T04:45:21.111Z,65.20
2018-06-10T04:50:29.892Z,64.90
2018-06-10T04:52:59.700Z,65.70
2018-06-10T04:55:29.347Z,64.60
2018-06-10T04:57:59.085Z,65.40
2018-06-10T05:00:28.740Z,66.30
2018-06-10T05:02:58.535Z,65.60
2018-06-10T05:05:28.222Z,64.70
2018-06-10T05:07:58.480Z,64.40
2018-06-10T05:15:33.259Z,64.20
2018-06-10T05:18:03.102Z,64.00
2018-06-10T05:20:32.798Z,62.50
2018-06-10T05:23:02.541Z,63.90
2018-06-10T05:25:32.341Z,62.70
2018-06-10T05:28:01.975Z,62.50
2018-06-10T05:30:31.711Z,64.20
2018-06-10T05:33:01.724Z,64.70
2018-06-10T05:35:31.759Z,63.30
2018-06-10T05:38:01.850Z,63.90
2018-06-10T05:40:31.801Z,63.60
2018-06-10T05:43:01.783Z,63.10
2018-06-10T05:45:31.489Z,62.60
2018-06-10T05:48:01.258Z,61.20
2018-06-10T05:53:06.812Z,61.70
2018-06-10T05:55:36.636Z,63.90
2018-06-10T05:58:06.424Z,62.60
2018-06-10T06:00:36.181Z,62.10
2018-06-10T06:03:05.932Z,61.90
2018-06-10T06:08:11.802Z,61.70
2018-06-10T06:10:41.780Z,61.90
2018-06-10T06:13:12.883Z,61.60
2018-06-10T06:15:42.628Z,60.30
2018-06-10T06:18:12.483Z,60.60
2018-06-10T06:20:42.201Z,60.60
2018-06-10T06:23:12.231Z,61.40
2018-06-10T06:25:42.510Z,59.30
2018-06-10T06:28:12.442Z,59.30
2018-06-10T06:30:42.729Z,59.20
2018-06-10T06:33:12.577Z,59.60
2018-06-10T06:38:15.373Z,59.50
2018-06-10T06:40:45.162Z,59.10
2018-06-10T06:43:14.993Z,59.00
2018-06-10T06:45:44.700Z,59.50
2018-06-10T06:48:14.578Z,59.10
2018-06-10T06:50:44.528Z,58.30
2018-06-10T06:53:14.292Z,57.60
2018-06-10T06:55:44.130Z,57.30
2018-06-10T06:58:13.908Z,56.60
2018-06-10T07:00:43.765Z,56.40
2018-06-10T07:03:13.935Z,56.00
2018-06-10T07:05:43.967Z,56.20
2018-06-10T07:08:13.910Z,56.40
2018-06-10T07:13:13.169Z,55.40
2018-06-10T07:15:43.777Z,55.50
2018-06-10T07:20:42.949Z,56.40
2018-06-10T07:23:12.637Z,55.20
2018-06-10T07:25:42.398Z,55.10
2018-06-10T07:28:12.091Z,55.40
2018-06-10T07:30:41.739Z,56.40
2018-06-10T07:33:11.725Z,55.00
2018-06-10T07:35:41.444Z,56.20
2018-06-10T07:38:11.171Z,56.70
2018-06-10T07:40:41.195Z,55.20
2018-06-10T07:43:11.253Z,55.80
2018-06-10T07:45:40.862Z,56.30
2018-06-10T07:48:10.615Z,54.80
2018-06-10T07:50:40.253Z,55.00
2018-06-10T07:53:10.003Z,55.70
2018-06-10T07:55:39.622Z,55.30
2018-06-10T07:58:09.562Z,56.30
2018-06-10T08:00:39.364Z,55.00
2018-06-10T08:03:09.142Z,57.10
2018-06-10T08:05:40.079Z,54.50
2018-06-10T08:08:10.044Z,55.50
2018-06-10T08:10:39.807Z,54.40
2018-06-10T08:13:09.425Z,55.20
2018-06-10T08:15:39.429Z,52.70
2018-06-10T08:18:09.212Z,54.60
2018-06-10T08:20:38.966Z,53.90
2018-06-10T08:23:08.777Z,54.40
2018-06-10T08:25:38.673Z,53.50
2018-06-10T08:28:08.342Z,54.30
2018-06-10T08:30:38.517Z,52.80
2018-06-10T08:33:08.190Z,55.00
2018-06-10T08:35:38.004Z,50.60
2018-06-10T08:38:08.189Z,50.90
2018-06-10T08:40:38.203Z,48.90
2018-06-10T08:43:08.035Z,49.00
2018-06-10T08:45:37.909Z,49.60
2018-06-10T08:48:07.663Z,48.10
2018-06-10T08:50:37.773Z,49.40
2018-06-10T08:53:07.747Z,49.00
2018-06-10T08:55:37.682Z,48.10
2018-06-10T08:58:07.766Z,46.00
2018-06-10T09:00:37.594Z,47.40
2018-06-10T09:03:07.478Z,48.80
2018-06-10T09:05:37.466Z,46.80
2018-06-10T09:08:07.794Z,50.30
2018-06-10T09:10:37.997Z,46.00
2018-06-10T09:13:08.230Z,45.80
2018-06-10T09:15:38.082Z,48.60
2018-06-10T09:20:37.895Z,46.20
2018-06-10T09:23:08.057Z,47.60
2018-06-10T09:25:37.911Z,48.90
2018-06-10T09:28:07.772Z,47.70
2018-06-10T09:30:41.578Z,46.60
2018-06-10T09:33:11.480Z,47.10
2018-06-10T09:35:41.352Z,47.00
2018-06-10T09:38:11.394Z,44.60
2018-06-10T09:40:41.175Z,44.70
2018-06-10T09:43:11.062Z,44.50
2018-06-10T09:45:46.686Z,45.10
2018-06-10T09:48:16.463Z,45.40
2018-06-10T09:50:46.101Z,45.90
2018-06-10T09:53:15.820Z,47.70
2018-06-10T09:55:45.710Z,46.60
2018-06-10T09:58:15.353Z,47.00
2018-06-10T10:00:45.111Z,46.00
2018-06-10T10:03:14.894Z,47.30
2018-06-10T10:05:44.940Z,45.50
2018-06-10T10:08:15.330Z,46.00
2018-06-10T10:10:45.207Z,46.20
2018-06-10T10:13:14.852Z,46.80
2018-06-10T10:15:44.761Z,49.60
2018-06-10T10:18:14.711Z,49.10
2018-06-10T10:20:44.498Z,47.80
2018-06-10T10:23:14.223Z,49.70
2018-06-10T10:25:43.978Z,49.70
2018-06-10T10:28:13.744Z,48.30
2018-06-10T10:33:13.369Z,51.00
2018-06-10T10:35:43.669Z,49.60
2018-06-10T10:40:42.947Z,47.70
2018-06-10T10:45:47.585Z,49.10
2018-06-10T10:48:17.496Z,48.10
2018-06-10T10:50:47.597Z,49.60
2018-06-10T10:53:17.300Z,48.10
2018-06-10T10:55:47.061Z,48.10
2018-06-10T10:58:16.945Z,48.70
2018-06-10T11:00:47.332Z,50.00
2018-06-10T11:03:17.038Z,50.10
2018-06-10T11:05:46.942Z,48.00
2018-06-10T11:08:17.214Z,49.80
2018-06-10T11:10:46.927Z,50.30
2018-06-10T11:13:16.604Z,48.20
2018-06-10T11:15:46.836Z,48.50
2018-06-10T11:18:16.507Z,50.10
2018-06-10T11:20:46.599Z,48.10
2018-06-10T11:23:16.538Z,48.20
2018-06-10T11:25:46.597Z,47.50
2018-06-10T11:28:16.496Z,47.30
2018-06-10T11:30:46.752Z,48.20
2018-06-10T11:33:16.895Z,48.20
2018-06-10T11:35:46.985Z,46.90
2018-06-10T11:38:17.004Z,46.80
2018-06-10T11:40:46.941Z,46.10
2018-06-10T11:43:16.942Z,48.00
2018-06-10T11:45:47.178Z,47.10
2018-06-10T11:48:17.291Z,47.70
2018-06-10T11:50:47.263Z,45.00
2018-06-10T11:53:17.637Z,47.00
2018-06-10T11:55:47.766Z,48.20
2018-06-10T11:58:17.694Z,46.80
2018-06-10T12:00:47.646Z,48.60
2018-06-10T12:03:17.572Z,46.60
2018-06-10T12:05:47.372Z,45.10
2018-06-10T12:08:17.259Z,45.00
2018-06-10T12:10:47.369Z,44.90
2018-06-10T12:13:17.372Z,44.90
2018-06-10T12:15:47.232Z,44.80
2018-06-10T12:18:17.149Z,45.20
2018-06-10T12:20:47.017Z,48.30
2018-06-10T12:23:17.080Z,46.70
2018-06-10T12:25:47.106Z,45.30
2018-06-10T12:28:17.059Z,46.60
2018-06-10T12:30:47.171Z,46.30
2018-06-10T12:33:17.232Z,47.00
2018-06-10T12:35:47.822Z,45.30
2018-06-10T12:40:47.596Z,44.20
2018-06-10T12:43:17.731Z,45.40
2018-06-10T12:45:47.667Z,45.70
2018-06-10T12:48:17.811Z,45.70
2018-06-10T12:50:47.695Z,47.50
2018-06-10T12:53:17.782Z,44.90
2018-06-10T12:55:47.757Z,44.60
2018-06-10T12:58:17.668Z,43.70
2018-06-10T13:00:47.765Z,44.40
2018-06-10T13:03:17.707Z,46.60
2018-06-10T13:05:47.596Z,47.30
2018-06-10T13:08:17.396Z,49.20
2018-06-10T13:10:47.276Z,47.70
2018-06-10T13:13:17.164Z,47.70
2018-06-10T13:15:47.443Z,47.70
2018-06-10T13:18:17.529Z,48.50
2018-06-10T13:20:47.348Z,50.00
2018-06-10T13:25:47.131Z,49.20
2018-06-10T13:28:17.337Z,48.60
2018-06-10T13:30:48.137Z,49.50
2018-06-10T13:33:18.255Z,47.20
2018-06-10T13:35:48.223Z,48.60
2018-06-10T13:38:18.519Z,48.30
2018-06-10T13:40:48.878Z,49.60
2018-06-10T13:43:18.764Z,50.30
2018-06-10T13:45:48.786Z,50.40
2018-06-10T13:48:19.059Z,50.80
2018-06-10T13:50:49.057Z,51.90
2018-06-10T13:55:54.124Z,51.30
2018-06-10T13:58:24.724Z,51.50
2018-06-10T14:03:30.252Z,51.30
2018-06-10T14:08:30.555Z,51.40
2018-06-10T14:11:00.507Z,51.60
2018-06-10T14:13:30.862Z,51.30
2018-06-10T14:16:00.817Z,50.70
2018-06-10T14:18:30.818Z,51.30
2018-06-10T14:21:00.780Z,51.20
2018-06-10T14:26:06.810Z,51.90
2018-06-10T14:28:37.866Z,52.90
2018-06-10T14:31:10.806Z,54.20
2018-06-10T14:36:10.636Z,54.20
2018-06-10T14:38:40.861Z,54.40
2018-06-10T14:43:46.933Z,54.30
2018-06-10T14:46:16.798Z,55.00
2018-06-10T14:48:47.053Z,55.50
2018-06-10T14:51:16.875Z,54.20
2018-06-10T14:56:16.332Z,54.90
2018-06-10T14:58:46.212Z,53.20
2018-06-10T15:03:45.938Z,53.30
2018-06-10T15:06:17.584Z,53.40
2018-06-10T15:08:47.543Z,53.00
2018-06-10T15:11:17.360Z,52.40
2018-06-10T15:13:49.354Z,51.50
2018-06-10T15:18:49.930Z,53.50
2018-06-10T15:21:20.126Z,54.00
2018-06-10T15:23:49.946Z,54.90
2018-06-10T15:26:19.819Z,54.10
2018-06-10T15:28:50.323Z,54.20
2018-06-10T15:33:49.716Z,54.10
2018-06-10T15:36:19.517Z,54.20
2018-06-10T15:38:50.592Z,53.50
2018-06-10T15:41:20.907Z,54.90
2018-06-10T15:46:20.934Z,52.90
2018-06-10T15:51:22.422Z,53.20
2018-06-10T15:53:52.984Z,53.60
2018-06-10T15:56:22.810Z,53.40
2018-06-10T15:58:52.538Z,54.40
2018-06-10T16:01:22.388Z,55.00
2018-06-10T16:06:21.958Z,54.90
2018-06-10T16:08:51.863Z,54.70
2018-06-10T16:11:23.753Z,55.00
2018-06-10T16:13:53.517Z,54.80
2018-06-10T16:16:23.361Z,54.80
2018-06-10T16:18:53.092Z,55.60
2018-06-10T16:21:23.010Z,56.10
2018-06-10T16:23:53.007Z,55.70
2018-06-10T16:26:23.504Z,55.20
2018-06-10T16:28:54.091Z,55.60
2018-06-10T16:31:24.233Z,56.70
2018-06-10T16:33:53.938Z,56.80
2018-06-10T16:36:24.168Z,56.80
2018-06-10T16:38:53.999Z,57.50
2018-06-10T16:41:23.867Z,57.80
2018-06-10T16:43:53.969Z,57.90
2018-06-10T16:46:23.855Z,58.70
2018-06-10T16:48:54.014Z,58.70
2018-06-10T16:51:23.881Z,59.10
2018-06-10T16:53:53.961Z,59.40
2018-06-10T16:56:24.097Z,59.10
2018-06-10T16:58:54.072Z,58.80
2018-06-10T17:01:24.036Z,58.80
2018-06-10T17:03:53.861Z,58.00
2018-06-10T17:06:23.642Z,58.30
2018-06-10T17:08:53.785Z,58.80
2018-06-10T17:13:53.660Z,58.80
2018-06-10T17:16:23.781Z,59.60
2018-06-10T17:24:05.852Z,59.30
2018-06-10T17:26:36.031Z,58.90
2018-06-10T17:29:05.991Z,59.50
2018-06-10T17:31:35.888Z,59.30
2018-06-10T17:34:05.783Z,59.40
2018-06-10T17:39:11.241Z,59.50
2018-06-10T17:44:10.159Z,59.80
2018-06-10T17:46:40.365Z,61.80
2018-06-10T17:49:10.479Z,62.20
2018-06-10T17:54:15.905Z,62.00
2018-06-10T17:56:45.884Z,62.60
2018-06-10T17:59:16.534Z,62.00
2018-06-10T18:01:46.219Z,60.40
2018-06-10T18:04:16.147Z,59.10
2018-06-10T18:06:45.788Z,59.30
2018-06-10T18:09:16.412Z,60.20
2018-06-10T18:11:46.112Z,60.30
2018-06-10T18:14:16.176Z,59.70
2018-06-10T18:16:46.037Z,58.80
2018-06-10T18:19:15.884Z,58.60
2018-06-10T18:21:48.892Z,58.60
2018-06-10T18:24:18.623Z,59.10
2018-06-10T18:26:48.328Z,59.00
2018-06-10T18:29:18.050Z,58.80
2018-06-10T18:31:47.902Z,59.50
2018-06-10T18:36:47.206Z,62.00
2018-06-10T18:39:17.280Z,62.70
2018-06-10T18:41:53.283Z,62.80
2018-06-10T18:44:23.138Z,62.40
2018-06-10T18:46:53.208Z,62.00
2018-06-10T18:49:23.245Z,62.70
2018-06-10T18:51:53.499Z,62.10
2018-06-10T18:54:23.335Z,60.80
2018-06-10T18:56:53.162Z,60.40
2018-06-10T18:59:24.123Z,61.40
2018-06-10T19:01:55.260Z,62.70
2018-06-10T19:04:25.113Z,62.90
2018-06-10T19:06:54.955Z,62.30
2018-06-10T19:12:02.282Z,62.20
2018-06-10T19:14:34.214Z,62.00
2018-06-10T19:19:43.447Z,61.90
2018-06-10T19:22:14.111Z,63.00
2018-06-10T19:24:44.444Z,63.00
2018-06-10T19:27:14.981Z,63.90
2018-06-10T19:29:45.607Z,64.70
2018-06-10T19:32:18.993Z,64.90
2018-06-10T19:34:49.255Z,64.60
2018-06-10T19:37:19.169Z,63.70
2018-06-10T19:39:50.059Z,63.90
2018-06-10T19:44:51.740Z,63.30
2018-06-10T19:47:21.828Z,62.80
2018-06-10T19:49:52.940Z,61.90
2018-06-10T19:52:23.437Z,61.50
2018-06-10T19:54:54.813Z,61.60
2018-06-10T19:59:56.649Z,62.10
2018-06-10T20:02:26.980Z,63.00
2018-06-10T20:04:56.991Z,63.30
2018-06-10T20:07:28.280Z,64.10
2018-06-10T20:10:00.042Z,65.10
2018-06-10T20:12:31.542Z,64.70
2018-06-10T20:17:36.910Z,64.10
2018-06-10T20:20:07.778Z,63.60
2018-06-10T20:22:37.635Z,63.60
2018-06-10T20:25:07.572Z,64.90
2018-06-10T20:27:37.475Z,64.70
2018-06-10T20:32:51.181Z,65.80
2018-06-10T20:35:22.398Z,64.80
2018-06-10T20:37:52.090Z,65.10
2018-06-10T20:40:22.658Z,65.10
2018-06-10T20:42:53.235Z,64.10
2018-06-10T20:45:23.486Z,64.90
2018-06-10T20:47:53.562Z,65.60
2018-06-10T20:50:23.652Z,66.00
2018-06-10T20:52:55.380Z,64.90
2018-06-10T20:55:27.225Z,66.00
2018-06-10T20:57:56.871Z,65.70
2018-06-10T21:00:27.490Z,65.90
2018-06-10T21:02:57.525Z,67.50
2018-06-10T21:05:27.705Z,67.50
2018-06-10T21:08:18.492Z,66.90
2018-06-10T21:10:48.204Z,66.10
2018-06-10T21:13:18.339Z,66.20
2018-06-10T21:15:50.717Z,65.70
2018-06-10T21:20:57.304Z,65.80
2018-06-10T21:23:28.722Z,66.40
2018-06-10T21:25:58.629Z,66.80
2018-06-10T21:28:28.351Z,67.40
2018-06-10T21:31:05.943Z,68.80
2018-06-10T21:33:35.777Z,68.30
2018-06-10T21:36:06.937Z,68.00
2018-06-10T21:38:37.579Z,66.90
2018-06-10T21:41:07.574Z,66.40
2018-06-10T21:43:38.741Z,67.20
2018-06-10T21:46:09.861Z,67.70
2018-06-10T21:48:40.726Z,67.60
2018-06-10T21:53:51.273Z,68.00
2018-06-10T21:56:23.961Z,67.90
2018-06-10T21:58:54.967Z,67.60
2018-06-10T22:01:25.652Z,68.30
2018-06-10T22:03:55.943Z,69.10
2018-06-10T22:06:26.313Z,69.20
2018-06-10T22:11:32.490Z,69.60
2018-06-10T22:14:02.331Z,69.00
2018-06-10T22:16:32.074Z,69.30
2018-06-10T22:19:02.132Z,69.40
2018-06-10T22:21:32.092Z,69.40
2018-06-10T22:24:01.833Z,68.70
2018-06-10T22:26:32.796Z,69.10
2018-06-10T22:29:02.598Z,68.60
2018-06-10T22:31:34.779Z,68.30
2018-06-10T22:34:04.944Z,68.00
2018-06-10T22:36:34.677Z,68.90
2018-06-10T22:39:06.918Z,68.90
2018-06-10T22:41:53.114Z,68.50
2018-06-10T22:44:28.864Z,69.60
2018-06-10T22:46:59.796Z,68.50
2018-06-10T22:49:30.579Z,70.20
2018-06-10T22:52:00.509Z,71.00
2018-06-10T22:54:40.454Z,69.70
2018-06-10T22:57:11.308Z,68.90
2018-06-10T22:59:42.712Z,69.20
2018-06-10T23:02:13.318Z,69.40
2018-06-10T23:04:43.349Z,69.10
2018-06-10T23:07:13.966Z,68.90
2018-06-10T23:09:44.219Z,68.60
2018-06-10T23:14:44.236Z,69.80
2018-06-10T23:17:14.876Z,69.70
2018-06-10T23:19:44.949Z,70.20
2018-06-10T23:27:26.047Z,69.00
2018-06-10T23:29:55.691Z,69.20
2018-06-10T23:32:35.370Z,69.50
2018-06-10T23:35:05.763Z,69.30
2018-06-10T23:37:35.582Z,70.20
2018-06-10T23:40:05.466Z,69.80
2018-06-10T23:45:11.710Z,70.40
2018-06-10T23:47:42.278Z,71.20
2018-06-10T23:50:12.692Z,70.50
2018-06-10T23:52:43.548Z,71.50
2018-06-10T23:55:13.831Z,70.00
